Time;durP1;ratioP1;P1;durP2;ratioP2;P2;SDS_P1;SDS_P2;PMS_P1;PMS_P2;Temp;Humidity;BMP_temperature;BMP_pressure;BME280_temperature;BME280_humidity;BME280_pressure;Samples;Min_cycle;Max_cycle;Signal;HPM_P1;HPM_P2
2022/07/31 00:00:18;;;;;;;;;;;27.20;74.50;;;;;;5056390;28;19936;-63
2022/07/31 00:02:45;;;;;;;;;;;27.20;74.50;;;;;;5062629;28;19929;-64
2022/07/31 00:05:13;;;;;;;;;;;27.10;74.40;;;;;;5056895;28;19929;-63
2022/07/31 00:07:40;;;;;;;;;;;27.10;74.30;;;;;;5047987;28;19970;-63
2022/07/31 00:10:07;;;;;;;;;;;27.10;74.30;;;;;;5051102;28;19936;-64
2022/07/31 00:12:34;;;;;;;;;;;27.10;74.30;;;;;;5047097;28;19935;-63
2022/07/31 00:15:04;;;;;;;;;;;27.10;74.30;;;;;;5048793;28;19929;-62
2022/07/31 00:17:31;;;;;;;;;;;27.20;74.50;;;;;;5043942;28;19928;-62
2022/07/31 00:19:59;;;;;;;;;;;27.20;74.50;;;;;;5050980;28;19929;-63
2022/07/31 00:22:26;;;;;;;;;;;27.10;74.50;;;;;;5040336;28;19936;-62
2022/07/31 00:24:53;;;;;;;;;;;27.10;74.50;;;;;;5049221;28;19925;-62
2022/07/31 00:27:20;;;;;;;;;;;27.10;74.50;;;;;;5035119;28;20294;-64
2022/07/31 00:29:47;;;;;;;;;;;27.10;74.70;;;;;;5060393;28;19936;-62
2022/07/31 00:32:14;;;;;;;;;;;27.10;74.60;;;;;;5060013;28;19935;-63
2022/07/31 00:34:42;;;;;;;;;;;27.10;74.70;;;;;;5062116;28;19936;-62
2022/07/31 00:37:09;;;;;;;;;;;27.10;74.80;;;;;;5045705;28;19929;-62
2022/07/31 00:39:37;;;;;;;;;;;27.20;74.80;;;;;;5050395;28;19935;-62
2022/07/31 00:42:04;;;;;;;;;;;27.20;74.90;;;;;;5054123;28;19928;-62
2022/07/31 00:44:31;;;;;;;;;;;27.10;74.70;;;;;;5041882;28;19928;-61
2022/07/31 00:46:59;;;;;;;;;;;27.10;74.80;;;;;;5040728;28;19929;-62
2022/07/31 00:49:27;;;;;;;;;;;27.10;74.90;;;;;;5053381;28;19940;-63
2022/07/31 00:52:04;;;;;;;;;;;27.10;74.90;;;;;;5060644;28;19928;-63
2022/07/31 00:54:31;;;;;;;;;;;27.10;74.90;;;;;;5041478;28;19956;-63
2022/07/31 00:56:59;;;;;;;;;;;27.10;74.90;;;;;;5052261;28;19928;-63
2022/07/31 00:59:27;;;;;;;;;;;27.10;74.90;;;;;;5048745;28;19935;-62
2022/07/31 01:01:55;;;;;;;;;;;27.10;75.00;;;;;;5052474;28;19928;-61
2022/07/31 01:04:22;;;;;;;;;;;27.10;75.20;;;;;;5056206;28;19928;-60
2022/07/31 01:06:50;;;;;;;;;;;27.10;75.20;;;;;;5048266;28;19925;-61
2022/07/31 01:09:17;;;;;;;;;;;27.10;75.30;;;;;;5055963;28;19931;-62
2022/07/31 01:11:49;;;;;;;;;;;27.10;75.30;;;;;;5056178;28;19928;-62
2022/07/31 01:14:18;;;;;;;;;;;27.10;75.40;;;;;;5055952;28;20350;-60
2022/07/31 01:16:47;;;;;;;;;;;27.10;75.40;;;;;;5051750;28;19929;-61
2022/07/31 01:19:14;;;;;;;;;;;27.10;75.40;;;;;;5051673;28;19935;-61
2022/07/31 01:21:48;;;;;;;;;;;27.10;76.00;;;;;;5051725;28;19932;-62
2022/07/31 01:24:27;;;;;;;;;;;27.10;75.50;;;;;;5049637;28;19929;-63
2022/07/31 01:27:07;;;;;;;;;;;27.00;75.50;;;;;;5044379;28;19931;-63
2022/07/31 01:29:45;;;;;;;;;;;27.00;75.50;;;;;;5042715;28;19925;-63
2022/07/31 01:32:15;;;;;;;;;;;27.10;75.60;;;;;;5057742;28;20389;-63
2022/07/31 01:34:47;;;;;;;;;;;27.10;75.70;;;;;;5054718;28;20487;-62
2022/07/31 01:37:19;;;;;;;;;;;27.00;75.60;;;;;;5060225;28;19925;-63
2022/07/31 01:39:53;;;;;;;;;;;27.10;75.70;;;;;;5044031;28;19925;-63
2022/07/31 01:42:21;;;;;;;;;;;27.00;75.60;;;;;;5050591;28;20308;-63
2022/07/31 01:44:52;;;;;;;;;;;27.10;75.70;;;;;;5060827;28;20391;-63
2022/07/31 01:47:20;;;;;;;;;;;27.10;75.70;;;;;;5053340;28;19929;-63
2022/07/31 01:49:48;;;;;;;;;;;27.10;75.80;;;;;;5063455;28;19936;-62
2022/07/31 01:52:19;;;;;;;;;;;27.10;75.70;;;;;;5058849;28;20249;-63
2022/07/31 01:54:46;;;;;;;;;;;27.10;75.70;;;;;;5046069;28;19936;-62
2022/07/31 01:57:14;;;;;;;;;;;27.00;75.70;;;;;;5050448;28;20416;-62
2022/07/31 01:59:49;;;;;;;;;;;27.00;75.60;;;;;;5067825;28;19928;-62
2022/07/31 02:02:39;;;;;;;;;;;27.10;75.70;;;;;;5052212;28;19928;-62
2022/07/31 02:05:09;;;;;;;;;;;27.00;75.60;;;;;;5042020;28;19925;-62
2022/07/31 02:07:39;;;;;;;;;;;27.10;75.60;;;;;;5043284;28;19929;-63
2022/07/31 02:10:08;;;;;;;;;;;27.10;75.60;;;;;;5066930;28;19929;-62
2022/07/31 02:12:36;;;;;;;;;;;27.00;75.60;;;;;;5061671;28;19936;-63
2022/07/31 02:15:05;;;;;;;;;;;27.00;75.50;;;;;;5047158;28;19929;-62
2022/07/31 02:17:33;;;;;;;;;;;27.00;75.60;;;;;;5076025;28;19955;-61
2022/07/31 02:20:19;;;;;;;;;;;27.00;75.60;;;;;;5078113;28;19940;-62
2022/07/31 02:22:48;;;;;;;;;;;27.00;75.60;;;;;;5072664;28;19929;-62
2022/07/31 02:25:15;;;;;;;;;;;27.00;75.60;;;;;;5069059;28;20320;-63
2022/07/31 02:27:43;;;;;;;;;;;27.00;75.60;;;;;;5064907;28;19928;-62
2022/07/31 02:30:26;;;;;;;;;;;27.00;75.60;;;;;;5057918;28;20072;-62
2022/07/31 02:33:09;;;;;;;;;;;27.00;75.70;;;;;;5051709;28;19935;-63
2022/07/31 02:35:37;;;;;;;;;;;27.00;75.80;;;;;;5041041;28;19929;-62
2022/07/31 02:38:11;;;;;;;;;;;27.00;75.80;;;;;;5058696;28;19929;-62
2022/07/31 02:40:52;;;;;;;;;;;27.00;75.70;;;;;;5037512;28;19936;-62
2022/07/31 02:43:19;;;;;;;;;;;27.00;75.80;;;;;;5053906;28;19943;-62
2022/07/31 02:45:46;;;;;;;;;;;27.00;75.90;;;;;;5044462;28;19944;-62
2022/07/31 02:48:14;;;;;;;;;;;27.00;75.90;;;;;;5054257;28;20391;-61
2022/07/31 02:50:46;;;;;;;;;;;27.00;75.90;;;;;;5044141;28;19928;-62
2022/07/31 02:53:13;;;;;;;;;;;27.00;75.90;;;;;;5047886;28;19929;-63
2022/07/31 02:55:43;;;;;;;;;;;27.00;75.90;;;;;;5034167;28;19928;-63
2022/07/31 02:58:10;;;;;;;;;;;26.90;75.90;;;;;;5052725;28;19948;-63
2022/07/31 03:00:37;;;;;;;;;;;27.00;76.00;;;;;;5049712;28;19925;-63
2022/07/31 03:03:05;;;;;;;;;;;27.00;76.00;;;;;;5042608;28;19925;-62
2022/07/31 03:05:32;;;;;;;;;;;27.00;76.00;;;;;;5057504;28;19925;-63
2022/07/31 03:07:59;;;;;;;;;;;27.00;76.10;;;;;;5044424;28;20419;-63
2022/07/31 03:10:26;;;;;;;;;;;26.90;76.00;;;;;;5064623;28;19929;-63
2022/07/31 03:13:04;;;;;;;;;;;27.00;76.10;;;;;;5037022;28;20325;-63
2022/07/31 03:15:32;;;;;;;;;;;26.90;76.00;;;;;;5058581;28;19924;-63
2022/07/31 03:17:59;;;;;;;;;;;26.90;76.00;;;;;;5076490;28;19925;-61
2022/07/31 03:20:39;;;;;;;;;;;26.90;76.00;;;;;;5046472;28;19929;-64
2022/07/31 03:23:10;;;;;;;;;;;26.90;76.10;;;;;;5047575;28;20605;-62
2022/07/31 03:25:47;;;;;;;;;;;26.90;76.10;;;;;;5054768;28;19959;-63
2022/07/31 03:28:15;;;;;;;;;;;26.90;76.10;;;;;;5048411;28;19925;-62
2022/07/31 03:30:42;;;;;;;;;;;26.90;76.10;;;;;;5065038;28;19968;-62
2022/07/31 03:33:09;;;;;;;;;;;26.90;76.20;;;;;;5046683;28;19936;-62
2022/07/31 03:35:37;;;;;;;;;;;26.90;76.20;;;;;;5022872;28;20400;-60
2022/07/31 03:38:10;;;;;;;;;;;26.90;76.20;;;;;;5048766;28;19937;-62
2022/07/31 03:41:00;;;;;;;;;;;26.90;76.30;;;;;;5050347;28;19929;-61
2022/07/31 03:43:29;;;;;;;;;;;26.90;76.30;;;;;;5046136;28;19928;-59
2022/07/31 03:46:14;;;;;;;;;;;26.90;76.40;;;;;;5038996;28;20408;-61
2022/07/31 03:48:41;;;;;;;;;;;26.90;76.30;;;;;;5072457;28;19928;-63
2022/07/31 03:51:09;;;;;;;;;;;26.90;76.30;;;;;;5051350;28;19925;-61
2022/07/31 03:53:36;;;;;;;;;;;26.90;76.40;;;;;;5050361;28;19950;-61
2022/07/31 03:56:05;;;;;;;;;;;26.90;76.40;;;;;;5048719;28;19975;-63
2022/07/31 03:58:33;;;;;;;;;;;26.90;76.40;;;;;;5049614;28;20597;-60
2022/07/31 04:01:04;;;;;;;;;;;26.90;76.40;;;;;;5055368;28;19935;-61
2022/07/31 04:03:38;;;;;;;;;;;26.90;76.50;;;;;;5040506;28;20003;-61
2022/07/31 04:06:18;;;;;;;;;;;26.90;76.50;;;;;;5048015;28;19933;-63
2022/07/31 04:08:45;;;;;;;;;;;26.90;76.50;;;;;;5040346;28;20298;-62
2022/07/31 04:11:12;;;;;;;;;;;26.90;76.60;;;;;;5044117;28;19929;-60
2022/07/31 04:13:39;;;;;;;;;;;26.90;76.60;;;;;;5052137;28;19928;-62
2022/07/31 04:16:07;;;;;;;;;;;26.90;76.60;;;;;;5054835;28;20003;-61
2022/07/31 04:18:34;;;;;;;;;;;26.80;76.50;;;;;;5053859;28;19925;-62
2022/07/31 04:21:02;;;;;;;;;;;26.80;76.60;;;;;;5052495;28;19936;-62
2022/07/31 04:23:29;;;;;;;;;;;26.80;76.60;;;;;;5070295;28;19933;-62
2022/07/31 04:26:17;;;;;;;;;;;26.80;76.70;;;;;;5045507;28;19932;-62
2022/07/31 04:29:01;;;;;;;;;;;26.80;76.70;;;;;;5048360;28;19928;-63
2022/07/31 04:31:28;;;;;;;;;;;26.80;76.70;;;;;;5050564;28;19933;-62
2022/07/31 04:33:56;;;;;;;;;;;26.80;76.70;;;;;;5043884;28;19936;-63
2022/07/31 04:36:23;;;;;;;;;;;26.80;76.80;;;;;;5047973;28;20462;-61
2022/07/31 04:39:00;;;;;;;;;;;26.80;76.70;;;;;;5043253;28;20463;-62
2022/07/31 04:41:28;;;;;;;;;;;26.80;76.70;;;;;;5043208;28;19932;-62
2022/07/31 04:43:58;;;;;;;;;;;26.80;76.80;;;;;;5045621;28;19924;-62
2022/07/31 04:46:29;;;;;;;;;;;26.80;76.90;;;;;;5049508;28;19924;-62
2022/07/31 04:48:56;;;;;;;;;;;26.80;76.90;;;;;;5047439;28;19928;-62
2022/07/31 04:51:26;;;;;;;;;;;26.80;76.90;;;;;;5038837;28;19928;-63
2022/07/31 04:53:53;;;;;;;;;;;26.80;76.90;;;;;;5047631;28;20388;-63
2022/07/31 04:56:40;;;;;;;;;;;26.80;76.90;;;;;;5055391;28;19928;-62
2022/07/31 04:59:09;;;;;;;;;;;26.80;76.90;;;;;;5042765;28;19928;-62
2022/07/31 05:01:39;;;;;;;;;;;26.80;77.00;;;;;;5043998;28;19932;-61
2022/07/31 05:04:08;;;;;;;;;;;26.80;77.00;;;;;;5046366;28;20308;-61
2022/07/31 05:06:39;;;;;;;;;;;26.80;77.00;;;;;;5053642;28;19925;-63
2022/07/31 05:09:08;;;;;;;;;;;26.80;77.00;;;;;;5046647;28;19929;-62
2022/07/31 05:11:44;;;;;;;;;;;26.80;77.10;;;;;;5044666;28;20312;-63
2022/07/31 05:14:12;;;;;;;;;;;26.80;77.10;;;;;;5037245;28;19936;-63
2022/07/31 05:16:39;;;;;;;;;;;26.80;77.10;;;;;;5046408;28;19939;-62
2022/07/31 05:19:06;;;;;;;;;;;26.70;77.10;;;;;;5051881;28;19933;-63
2022/07/31 05:21:59;;;;;;;;;;;26.80;77.20;;;;;;5055200;28;19948;-63
2022/07/31 05:24:28;;;;;;;;;;;26.70;77.20;;;;;;5053755;28;19932;-62
2022/07/31 05:27:20;;;;;;;;;;;26.80;77.30;;;;;;5037292;28;19926;-62
2022/07/31 05:29:47;;;;;;;;;;;26.80;77.90;;;;;;5048580;28;19929;-62
2022/07/31 05:32:15;;;;;;;;;;;26.70;78.00;;;;;;5040714;28;19928;-62
2022/07/31 05:34:45;;;;;;;;;;;26.80;78.30;;;;;;5064831;28;19929;-60
2022/07/31 05:37:12;;;;;;;;;;;26.80;78.50;;;;;;5040898;28;19933;-61
2022/07/31 05:39:40;;;;;;;;;;;26.80;78.60;;;;;;5058520;28;19936;-61
2022/07/31 05:42:25;;;;;;;;;;;26.80;78.60;;;;;;5043928;28;19991;-63
2022/07/31 05:45:27;;;;;;;;;;;26.80;78.70;;;;;;4979993;28;20413;-62
2022/07/31 05:47:54;;;;;;;;;;;26.80;78.60;;;;;;5040209;28;19929;-62
2022/07/31 05:50:22;;;;;;;;;;;26.80;78.50;;;;;;5049402;28;19935;-63
2022/07/31 05:52:49;;;;;;;;;;;26.80;78.80;;;;;;5043574;28;19944;-60
2022/07/31 05:55:39;;;;;;;;;;;26.80;78.90;;;;;;5043092;28;20324;-59
2022/07/31 05:58:29;;;;;;;;;;;26.80;79.20;;;;;;5040882;28;19925;-59
2022/07/31 06:00:56;;;;;;;;;;;26.80;78.70;;;;;;5051144;28;19935;-58
2022/07/31 06:03:26;;;;;;;;;;;26.60;77.50;;;;;;5052471;28;19929;-61
2022/07/31 06:06:01;;;;;;;;;;;26.40;77.60;;;;;;5048607;28;19951;-58
2022/07/31 06:08:29;;;;;;;;;;;26.30;78.10;;;;;;5046139;28;19929;-61
2022/07/31 06:10:56;;;;;;;;;;;26.20;78.40;;;;;;5029182;28;20043;-60
2022/07/31 06:13:24;;;;;;;;;;;26.10;78.60;;;;;;5042552;28;19936;-61
2022/07/31 06:15:52;;;;;;;;;;;26.00;78.50;;;;;;5042153;28;19932;-60
2022/07/31 06:18:20;;;;;;;;;;;25.90;78.60;;;;;;5049389;28;19924;-61
2022/07/31 06:20:48;;;;;;;;;;;25.90;78.80;;;;;;5072021;28;19935;-61
2022/07/31 06:23:15;;;;;;;;;;;25.90;78.80;;;;;;5053292;28;20399;-58
2022/07/31 06:26:00;;;;;;;;;;;25.90;78.80;;;;;;5053460;28;19929;-59
2022/07/31 06:28:28;;;;;;;;;;;25.90;78.80;;;;;;5060714;28;20151;-60
2022/07/31 06:31:20;;;;;;;;;;;25.90;78.50;;;;;;5057664;28;19932;-59
2022/07/31 06:33:50;;;;;;;;;;;25.80;79.30;;;;;;5060034;28;20255;-61
2022/07/31 06:36:22;;;;;;;;;;;25.70;79.40;;;;;;5046929;28;19929;-61
2022/07/31 06:39:00;;;;;;;;;;;25.70;79.70;;;;;;5050394;28;19928;-59
2022/07/31 06:44:29;;;;;;;;;;;25.70;80.10;;;;;;5042465;28;19928;-62
2022/07/31 06:47:25;;;;;;;;;;;25.70;80.60;;;;;;5043545;28;20235;-62
2022/07/31 06:49:55;;;;;;;;;;;25.60;80.50;;;;;;5050131;28;19925;-62
2022/07/31 06:52:26;;;;;;;;;;;25.60;80.90;;;;;;5045873;28;19932;-62
2022/07/31 06:54:54;;;;;;;;;;;25.60;81.50;;;;;;5053468;28;19975;-61
2022/07/31 06:57:21;;;;;;;;;;;25.70;81.70;;;;;;5047319;28;19936;-62
2022/07/31 06:59:49;;;;;;;;;;;25.70;82.50;;;;;;5045269;28;20288;-61
2022/07/31 07:02:16;;;;;;;;;;;25.70;82.40;;;;;;5050691;28;19929;-60
2022/07/31 07:04:43;;;;;;;;;;;25.70;82.40;;;;;;5046973;28;19932;-60
2022/07/31 07:07:30;;;;;;;;;;;25.70;81.60;;;;;;5068992;28;20046;-61
2022/07/31 07:10:00;;;;;;;;;;;25.70;81.10;;;;;;5078475;28;19936;-61
2022/07/31 07:12:50;;;;;;;;;;;25.60;81.10;;;;;;5046304;28;20407;-65
2022/07/31 07:15:20;;;;;;;;;;;25.60;81.30;;;;;;5054166;28;19940;-61
2022/07/31 07:17:47;;;;;;;;;;;25.60;81.20;;;;;;5047994;28;19951;-58
2022/07/31 07:20:20;;;;;;;;;;;25.50;81.50;;;;;;5061956;28;19929;-58
2022/07/31 07:22:47;;;;;;;;;;;25.50;80.90;;;;;;5048722;28;20289;-59
2022/07/31 07:25:27;;;;;;;;;;;25.60;81.00;;;;;;5050752;28;19944;-58
2022/07/31 07:27:56;;;;;;;;;;;25.60;81.00;;;;;;5039539;28;19936;-61
2022/07/31 07:30:27;;;;;;;;;;;25.50;81.40;;;;;;5047894;28;19948;-60
2022/07/31 07:32:58;;;;;;;;;;;25.50;81.70;;;;;;5053298;28;19929;-59
2022/07/31 07:35:27;;;;;;;;;;;25.50;81.20;;;;;;5046764;28;19929;-59
2022/07/31 07:38:02;;;;;;;;;;;25.50;81.40;;;;;;5041637;28;19929;-58
2022/07/31 07:40:30;;;;;;;;;;;25.50;81.90;;;;;;5044507;28;19935;-58
2022/07/31 07:42:57;;;;;;;;;;;25.70;82.10;;;;;;5036233;28;20408;-61
2022/07/31 07:45:29;;;;;;;;;;;25.70;83.70;;;;;;5049186;28;19951;-62
2022/07/31 07:47:57;;;;;;;;;;;25.90;83.40;;;;;;5039112;28;19935;-62
2022/07/31 07:50:43;;;;;;;;;;;25.90;83.20;;;;;;5055399;28;19925;-64
2022/07/31 07:53:29;;;;;;;;;;;26.00;82.60;;;;;;5044445;28;20315;-62
2022/07/31 07:56:14;;;;;;;;;;;26.00;82.90;;;;;;5047033;28;19933;-61
2022/07/31 07:59:02;;;;;;;;;;;26.00;82.20;;;;;;5046716;28;20300;-61
2022/07/31 08:01:47;;;;;;;;;;;26.10;81.20;;;;;;5052396;28;19929;-60
2022/07/31 08:04:19;;;;;;;;;;;26.00;81.40;;;;;;5057751;28;19925;-60
2022/07/31 08:06:47;;;;;;;;;;;26.00;81.40;;;;;;5051460;28;19932;-58
2022/07/31 08:09:15;;;;;;;;;;;26.10;81.60;;;;;;5042352;28;19939;-59
2022/07/31 08:12:01;;;;;;;;;;;26.10;82.20;;;;;;5047792;28;19959;-60
2022/07/31 08:14:58;;;;;;;;;;;26.10;81.50;;;;;;5041235;28;20401;-61
2022/07/31 08:17:40;;;;;;;;;;;26.10;82.00;;;;;;5051213;28;19932;-63
2022/07/31 08:20:09;;;;;;;;;;;26.10;82.00;;;;;;5046107;28;20411;-58
2022/07/31 08:22:36;;;;;;;;;;;26.10;81.70;;;;;;5040414;28;19935;-60
2022/07/31 08:25:04;;;;;;;;;;;26.10;82.30;;;;;;5033527;28;19929;-61
2022/07/31 08:27:32;;;;;;;;;;;26.10;82.30;;;;;;5053023;28;20655;-61
2022/07/31 08:30:07;;;;;;;;;;;26.10;81.30;;;;;;5043629;28;19933;-62
2022/07/31 08:32:35;;;;;;;;;;;26.10;80.70;;;;;;5057885;28;19928;-62
2022/07/31 08:35:05;;;;;;;;;;;26.10;80.80;;;;;;5045808;28;19931;-62
2022/07/31 08:37:32;;;;;;;;;;;26.10;80.90;;;;;;5064862;28;19932;-61
2022/07/31 08:40:21;;;;;;;;;;;26.10;80.70;;;;;;5043684;28;19929;-63
2022/07/31 08:42:48;;;;;;;;;;;26.20;80.70;;;;;;5065356;28;19929;-57
2022/07/31 08:45:15;;;;;;;;;;;26.20;80.70;;;;;;5064337;28;19952;-60
2022/07/31 08:47:50;;;;;;;;;;;26.20;80.70;;;;;;5039123;28;19928;-62
2022/07/31 08:50:24;;;;;;;;;;;26.30;80.90;;;;;;5036395;28;19936;-60
2022/07/31 08:52:53;;;;;;;;;;;26.30;80.20;;;;;;5046635;28;20400;-61
2022/07/31 08:55:28;;;;;;;;;;;26.20;79.30;;;;;;5042942;28;20467;-59
2022/07/31 08:58:17;;;;;;;;;;;26.30;80.40;;;;;;5044658;28;20331;-63
2022/07/31 09:00:44;;;;;;;;;;;26.30;80.30;;;;;;5037816;28;19932;-63
2022/07/31 09:03:11;;;;;;;;;;;26.20;79.80;;;;;;5040694;28;19940;-61
2022/07/31 09:05:48;;;;;;;;;;;26.20;80.10;;;;;;5040641;28;19929;-62
2022/07/31 09:08:16;;;;;;;;;;;26.30;79.90;;;;;;5035114;28;19933;-60
2022/07/31 09:10:59;;;;;;;;;;;26.10;79.60;;;;;;5038586;28;20313;-60
2022/07/31 09:13:29;;;;;;;;;;;26.20;79.90;;;;;;5041203;28;19963;-62
2022/07/31 09:15:58;;;;;;;;;;;26.30;79.90;;;;;;5040436;28;19965;-61
2022/07/31 09:18:27;;;;;;;;;;;26.30;79.90;;;;;;5050242;28;20231;-62
2022/07/31 09:21:02;;;;;;;;;;;26.30;79.80;;;;;;5054432;28;20012;-60
2022/07/31 09:23:31;;;;;;;;;;;26.30;79.80;;;;;;5048424;28;19981;-60
2022/07/31 09:26:00;;;;;;;;;;;26.30;79.70;;;;;;5059235;28;19932;-62
2022/07/31 09:28:32;;;;;;;;;;;26.40;79.80;;;;;;5059040;28;20426;-62
2022/07/31 09:30:59;;;;;;;;;;;26.40;79.70;;;;;;5061477;28;19928;-62
2022/07/31 09:33:46;;;;;;;;;;;26.40;79.50;;;;;;5054741;28;19940;-63
2022/07/31 09:36:32;;;;;;;;;;;26.40;79.50;;;;;;5057686;28;19935;-61
2022/07/31 09:39:27;;;;;;;;;;;26.40;79.80;;;;;;5065950;28;19932;-60
2022/07/31 09:42:15;;;;;;;;;;;26.40;79.50;;;;;;5065178;28;19936;-61
2022/07/31 09:45:03;;;;;;;;;;;26.50;79.40;;;;;;5049001;28;19924;-60
2022/07/31 09:47:32;;;;;;;;;;;26.50;79.20;;;;;;5064362;28;19929;-61
2022/07/31 09:50:03;;;;;;;;;;;26.50;79.10;;;;;;5049784;28;20431;-61
2022/07/31 09:52:31;;;;;;;;;;;26.50;79.00;;;;;;5046429;28;19935;-61
2022/07/31 09:55:09;;;;;;;;;;;26.50;78.90;;;;;;5053853;28;19925;-62
2022/07/31 09:57:51;;;;;;;;;;;26.40;78.80;;;;;;5046105;28;19929;-62
2022/07/31 10:00:20;;;;;;;;;;;26.50;78.70;;;;;;5046323;28;19940;-61
2022/07/31 10:02:48;;;;;;;;;;;26.50;78.60;;;;;;5050680;28;19928;-61
2022/07/31 10:05:16;;;;;;;;;;;26.50;78.60;;;;;;5051530;28;19952;-62
2022/07/31 10:07:45;;;;;;;;;;;26.50;78.50;;;;;;5049197;28;19924;-61
2022/07/31 10:10:17;;;;;;;;;;;26.50;77.60;;;;;;5042427;28;19925;-64
2022/07/31 10:13:06;;;;;;;;;;;26.40;78.10;;;;;;5055197;28;19944;-60
2022/07/31 10:15:35;;;;;;;;;;;26.40;78.20;;;;;;5038951;28;20303;-62
2022/07/31 10:18:41;;;;;;;;;;;26.50;78.40;;;;;;5018555;28;19931;-62
2022/07/31 10:21:23;;;;;;;;;;;26.50;78.50;;;;;;5042604;28;19929;-62
2022/07/31 10:24:00;;;;;;;;;;;26.50;79.00;;;;;;5066951;28;19936;-63
2022/07/31 10:26:27;;;;;;;;;;;26.50;78.40;;;;;;5056290;28;20694;-62
2022/07/31 10:29:16;;;;;;;;;;;26.50;78.20;;;;;;5055454;28;20280;-61
2022/07/31 10:31:45;;;;;;;;;;;26.50;77.90;;;;;;5059357;28;19929;-64
2022/07/31 10:34:13;;;;;;;;;;;26.60;77.90;;;;;;5062321;28;19929;-63
2022/07/31 10:37:21;;;;;;;;;;;26.50;78.00;;;;;;5040364;28;19929;-64
2022/07/31 10:40:09;;;;;;;;;;;26.50;77.80;;;;;;5050104;28;19929;-61
2022/07/31 10:42:45;;;;;;;;;;;26.50;77.10;;;;;;5057901;28;20280;-61
2022/07/31 10:45:13;;;;;;;;;;;26.50;77.60;;;;;;5043665;28;20296;-62
2022/07/31 10:47:59;;;;;;;;;;;26.50;77.60;;;;;;5051178;28;19983;-61
2022/07/31 10:50:45;;;;;;;;;;;26.50;77.20;;;;;;5061461;28;19959;-63
2022/07/31 10:53:20;;;;;;;;;;;26.50;77.90;;;;;;5066752;28;19936;-61
2022/07/31 10:56:12;;;;;;;;;;;26.50;78.60;;;;;;5056116;28;19929;-61
2022/07/31 10:59:09;;;;;;;;;;;26.60;78.30;;;;;;4989971;28;20370;-60
2022/07/31 11:01:53;;;;;;;;;;;26.60;78.40;;;;;;5035686;28;19929;-65
2022/07/31 11:04:39;;;;;;;;;;;26.70;77.60;;;;;;5037755;28;20008;-60
2022/07/31 11:07:14;;;;;;;;;;;26.70;78.00;;;;;;5043732;28;19929;-62
2022/07/31 11:10:20;;;;;;;;;;;26.70;77.80;;;;;;5050738;28;19943;-64
2022/07/31 11:13:24;;;;;;;;;;;26.70;78.20;;;;;;5048313;28;20312;-62
2022/07/31 11:16:26;;;;;;;;;;;26.80;78.40;;;;;;5044659;28;19940;-64
2022/07/31 11:19:21;;;;;;;;;;;26.80;78.10;;;;;;5046905;28;20239;-63
2022/07/31 11:21:48;;;;;;;;;;;26.80;76.40;;;;;;5043599;28;19928;-61
2022/07/31 11:24:15;;;;;;;;;;;26.90;76.30;;;;;;5044905;28;20400;-63
2022/07/31 11:26:49;;;;;;;;;;;26.80;76.10;;;;;;5045618;28;20419;-61
2022/07/31 11:29:29;;;;;;;;;;;26.80;77.40;;;;;;5045212;28;19929;-63
2022/07/31 11:32:16;;;;;;;;;;;26.80;77.40;;;;;;5050079;28;19928;-64
2022/07/31 11:34:53;;;;;;;;;;;26.90;77.20;;;;;;5044263;28;19928;-64
2022/07/31 11:37:24;;;;;;;;;;;26.90;77.30;;;;;;5047595;28;19928;-64
2022/07/31 11:39:52;;;;;;;;;;;26.90;77.30;;;;;;5039290;28;19936;-63
2022/07/31 11:42:21;;;;;;;;;;;26.90;76.50;;;;;;5046410;28;19948;-62
2022/07/31 11:45:03;;;;;;;;;;;26.90;76.80;;;;;;5041306;28;20316;-62
2022/07/31 11:47:39;;;;;;;;;;;26.90;77.30;;;;;;5040770;28;19948;-65
2022/07/31 11:50:29;;;;;;;;;;;26.90;77.30;;;;;;5046560;28;20400;-61
2022/07/31 11:53:05;;;;;;;;;;;26.80;77.40;;;;;;5069081;28;20397;-61
2022/07/31 11:55:43;;;;;;;;;;;26.90;77.20;;;;;;5051014;28;20376;-62
2022/07/31 11:58:10;;;;;;;;;;;26.90;77.40;;;;;;5050056;28;20396;-61
2022/07/31 12:00:37;;;;;;;;;;;26.90;77.30;;;;;;5040876;28;19933;-62
2022/07/31 12:03:04;;;;;;;;;;;26.90;77.00;;;;;;5042494;28;19929;-63
2022/07/31 12:05:41;;;;;;;;;;;26.90;76.50;;;;;;5041550;28;19928;-62
2022/07/31 12:08:09;;;;;;;;;;;26.90;76.00;;;;;;5055842;28;19929;-59
2022/07/31 12:10:37;;;;;;;;;;;26.90;76.00;;;;;;5038577;28;20183;-61
2022/07/31 12:13:08;;;;;;;;;;;26.90;76.20;;;;;;5056105;28;19936;-61
2022/07/31 12:15:58;;;;;;;;;;;27.00;76.40;;;;;;5064341;28;19929;-61
2022/07/31 12:18:26;;;;;;;;;;;27.00;76.10;;;;;;5048380;28;19929;-61
2022/07/31 12:20:57;;;;;;;;;;;27.00;75.30;;;;;;5046445;28;19955;-60
2022/07/31 12:23:25;;;;;;;;;;;27.10;75.40;;;;;;5043228;28;20304;-60
2022/07/31 12:26:09;;;;;;;;;;;27.10;74.60;;;;;;5051822;28;19950;-61
2022/07/31 12:28:37;;;;;;;;;;;27.10;74.80;;;;;;5044980;28;20147;-61
2022/07/31 12:31:04;;;;;;;;;;;27.10;74.90;;;;;;5055960;28;20316;-60
2022/07/31 12:33:41;;;;;;;;;;;27.10;74.90;;;;;;5051841;28;19928;-59
2022/07/31 12:36:13;;;;;;;;;;;27.10;74.50;;;;;;5047313;28;19948;-61
2022/07/31 12:38:40;;;;;;;;;;;27.20;73.70;;;;;;5040544;28;19929;-61
2022/07/31 12:41:14;;;;;;;;;;;27.20;73.70;;;;;;5055449;28;19936;-61
2022/07/31 12:43:41;;;;;;;;;;;27.10;74.30;;;;;;5047908;28;19929;-60
2022/07/31 12:46:32;;;;;;;;;;;27.10;73.80;;;;;;5054105;28;20238;-61
2022/07/31 12:48:59;;;;;;;;;;;27.20;74.20;;;;;;5055726;28;19931;-62
2022/07/31 12:51:27;;;;;;;;;;;27.10;74.40;;;;;;5050916;28;19940;-61
2022/07/31 12:54:12;;;;;;;;;;;27.10;74.80;;;;;;5052478;28;20388;-61
2022/07/31 12:56:40;;;;;;;;;;;27.10;74.70;;;;;;5057449;28;19929;-60
2022/07/31 12:59:07;;;;;;;;;;;27.10;75.00;;;;;;5060788;28;19936;-62
2022/07/31 13:01:35;;;;;;;;;;;27.20;73.90;;;;;;5049262;28;19925;-61
2022/07/31 13:04:04;;;;;;;;;;;27.30;73.50;;;;;;5059194;28;19945;-62
2022/07/31 13:06:36;;;;;;;;;;;27.40;73.40;;;;;;5053144;28;19928;-62
2022/07/31 13:09:03;;;;;;;;;;;27.40;73.70;;;;;;5050061;28;19929;-62
2022/07/31 13:11:32;;;;;;;;;;;27.50;73.10;;;;;;5059142;28;19932;-61
2022/07/31 13:14:18;;;;;;;;;;;27.50;73.10;;;;;;5052037;28;19929;-61
2022/07/31 13:16:45;;;;;;;;;;;27.50;73.50;;;;;;5049582;28;19947;-61
2022/07/31 13:19:13;;;;;;;;;;;27.50;72.90;;;;;;5054226;28;20372;-61
2022/07/31 13:21:41;;;;;;;;;;;27.60;72.70;;;;;;5053483;28;19925;-62
2022/07/31 13:24:16;;;;;;;;;;;27.50;73.10;;;;;;5062704;28;19928;-63
2022/07/31 13:26:44;;;;;;;;;;;27.40;73.60;;;;;;5046753;28;19929;-61
2022/07/31 13:29:11;;;;;;;;;;;27.40;74.20;;;;;;5053528;28;19928;-62
2022/07/31 13:31:39;;;;;;;;;;;27.40;74.10;;;;;;5052253;28;20277;-62
2022/07/31 13:34:06;;;;;;;;;;;27.40;74.10;;;;;;5047086;28;19935;-61
2022/07/31 13:36:33;;;;;;;;;;;27.40;73.50;;;;;;5037646;28;19929;-59
2022/07/31 13:39:09;;;;;;;;;;;27.50;73.50;;;;;;5052129;28;19931;-60
2022/07/31 13:41:37;;;;;;;;;;;27.40;73.50;;;;;;5048640;28;20424;-59
2022/07/31 13:44:05;;;;;;;;;;;27.40;73.80;;;;;;5049241;28;19925;-62
2022/07/31 13:46:32;;;;;;;;;;;27.40;73.20;;;;;;5056327;28;19931;-61
2022/07/31 13:48:59;;;;;;;;;;;27.40;73.10;;;;;;5056005;28;19933;-62
2022/07/31 13:51:28;;;;;;;;;;;27.40;72.60;;;;;;5042757;28;19982;-61
2022/07/31 13:53:56;;;;;;;;;;;27.50;72.30;;;;;;5050853;28;19935;-61
2022/07/31 13:56:23;;;;;;;;;;;27.50;72.30;;;;;;5054233;28;20357;-61
2022/07/31 13:59:09;;;;;;;;;;;27.40;72.80;;;;;;5047978;28;19963;-61
2022/07/31 14:01:38;;;;;;;;;;;27.40;72.20;;;;;;5045260;28;20030;-61
2022/07/31 14:04:25;;;;;;;;;;;27.30;72.50;;;;;;5062269;28;19933;-61
2022/07/31 14:06:57;;;;;;;;;;;27.40;71.50;;;;;;5060090;28;19929;-63
2022/07/31 14:09:27;;;;;;;;;;;27.40;71.80;;;;;;5056023;28;19928;-61
2022/07/31 14:11:54;;;;;;;;;;;27.30;72.30;;;;;;5051953;28;20269;-61
2022/07/31 14:14:22;;;;;;;;;;;27.30;72.50;;;;;;5058681;28;20351;-62
2022/07/31 14:16:50;;;;;;;;;;;27.30;72.40;;;;;;5060730;28;19924;-62
2022/07/31 14:19:17;;;;;;;;;;;27.30;72.20;;;;;;5067926;28;20375;-62
2022/07/31 14:21:44;;;;;;;;;;;27.30;72.50;;;;;;5055859;28;19929;-62
2022/07/31 14:24:24;;;;;;;;;;;27.30;72.00;;;;;;5057817;28;19925;-62
2022/07/31 14:26:51;;;;;;;;;;;27.30;72.50;;;;;;5057900;28;19928;-61
2022/07/31 14:29:18;;;;;;;;;;;27.30;72.20;;;;;;5054508;28;19939;-62
2022/07/31 14:31:45;;;;;;;;;;;27.30;72.30;;;;;;5038111;28;20451;-61
2022/07/31 14:34:12;;;;;;;;;;;27.20;72.50;;;;;;5055620;28;20419;-61
2022/07/31 14:36:39;;;;;;;;;;;27.20;72.40;;;;;;5046412;28;19928;-60
2022/07/31 14:39:07;;;;;;;;;;;27.20;72.70;;;;;;5050956;28;19929;-61
2022/07/31 14:41:34;;;;;;;;;;;27.30;72.90;;;;;;5052970;28;20396;-60
2022/07/31 14:44:01;;;;;;;;;;;27.20;72.70;;;;;;5044777;28;19929;-60
2022/07/31 14:46:28;;;;;;;;;;;27.30;72.70;;;;;;5045459;28;19947;-62
2022/07/31 14:48:55;;;;;;;;;;;27.40;72.70;;;;;;5052610;28;19936;-62
2022/07/31 14:51:22;;;;;;;;;;;27.50;72.40;;;;;;5047905;28;19955;-63